DAL635 TXKF-MTPP
Flight info
| Callsign | DAL635 |
|---|---|
| Flight time | 2h 35m |
| Altitude | 36000 |
| Route | BORNN1 ANTIG M328 TASNI/M079F350 L455 MCOOP/M079F360 M594 MLLER/N0458F360 M594 CERDA A554 GTK G444 BOTES/N0430F240 G444 SEPTO DCT SEDET |
| Aircraft | A319/M-SDE3FGHIRWY/LB1 |
Departure
| Time | 2026-04-16 13:22 |
|---|---|
| Airport | L.F. Wade International Airport (TXKF) |
Arrival
| Time | 2026-04-16 15:57 |
|---|---|
| Airport | Toussaint Louverture International Airport (MTPP) |
| Time | Latitude | Longitude | Altitude | Speed | Heading |
|---|---|---|---|---|---|
| 2026-04-16 13:20 | 32.36157 | -64.66430 | 23 ft | 0 kts | 281° |
| 2026-04-16 13:21 | 32.36158 | -64.66439 | 25 ft | 11 kts | 281° |
| 2026-04-16 13:21 | 32.36217 | -64.66783 | 27 ft | 73 kts | 282° |
| 2026-04-16 13:21 | 32.36363 | -64.67583 | 22 ft | 124 kts | 282° |
| 2026-04-16 13:21 | 32.36567 | -64.68753 | 57 ft | 161 kts | 281° |
| 2026-04-16 13:22 | 32.36781 | -64.69995 | 662 ft | 149 kts | 283° |
| 2026-04-16 13:22 | 32.36987 | -64.71166 | 1170 ft | 142 kts | 283° |
| 2026-04-16 13:22 | 32.37190 | -64.72279 | 1565 ft | 137 kts | 284° |
| 2026-04-16 13:22 | 32.37410 | -64.73417 | 1815 ft | 145 kts | 284° |
| 2026-04-16 13:23 | 32.37634 | -64.74529 | 2301 ft | 133 kts | 284° |
| 2026-04-16 13:23 | 32.37864 | -64.75646 | 2418 ft | 148 kts | 284° |
| 2026-04-16 13:23 | 32.38104 | -64.76854 | 2602 ft | 161 kts | 282° |
| 2026-04-16 13:23 | 32.38331 | -64.78266 | 2662 ft | 188 kts | 279° |
| 2026-04-16 13:24 | 32.38568 | -64.79879 | 2847 ft | 211 kts | 276° |
| 2026-04-16 13:24 | 32.38325 | -64.81663 | 3080 ft | 234 kts | 248° |
| 2026-04-16 13:24 | 32.37720 | -64.83550 | 3485 ft | 255 kts | 251° |
| 2026-04-16 13:24 | 32.37183 | -64.85574 | 4236 ft | 260 kts | 253° |
| 2026-04-16 13:25 | 32.36674 | -64.87627 | 5130 ft | 261 kts | 252° |
| 2026-04-16 13:25 | 32.36163 | -64.89695 | 5940 ft | 265 kts | 253° |
| 2026-04-16 13:25 | 32.35635 | -64.91795 | 6719 ft | 269 kts | 253° |
| 2026-04-16 13:25 | 32.35093 | -64.93928 | 7460 ft | 273 kts | 253° |
| 2026-04-16 13:26 | 32.34540 | -64.96083 | 8213 ft | 276 kts | 253° |
| 2026-04-16 13:26 | 32.33974 | -64.98263 | 8961 ft | 280 kts | 253° |
| 2026-04-16 13:26 | 32.33397 | -65.00466 | 9701 ft | 283 kts | 253° |
| 2026-04-16 13:26 | 32.32809 | -65.02696 | 10410 ft | 286 kts | 253° |
| 2026-04-16 13:27 | 32.32214 | -65.04950 | 11069 ft | 289 kts | 253° |
| 2026-04-16 13:27 | 32.31612 | -65.07229 | 11720 ft | 293 kts | 253° |
| 2026-04-16 13:27 | 32.31003 | -65.09534 | 12366 ft | 296 kts | 253° |
| 2026-04-16 13:27 | 32.30384 | -65.11863 | 13027 ft | 300 kts | 253° |
| 2026-04-16 13:28 | 32.29760 | -65.14224 | 13634 ft | 303 kts | 253° |
| 2026-04-16 13:28 | 32.29130 | -65.16614 | 14256 ft | 307 kts | 253° |
| 2026-04-16 13:28 | 32.28493 | -65.19027 | 14806 ft | 310 kts | 253° |
| 2026-04-16 13:28 | 32.27847 | -65.21468 | 15365 ft | 313 kts | 253° |
| 2026-04-16 13:29 | 32.27194 | -65.23928 | 15925 ft | 316 kts | 253° |
| 2026-04-16 13:29 | 32.26532 | -65.26415 | 16481 ft | 319 kts | 253° |
| 2026-04-16 13:29 | 32.25865 | -65.28924 | 17037 ft | 322 kts | 253° |
| 2026-04-16 13:29 | 32.25187 | -65.31458 | 17576 ft | 326 kts | 253° |
| 2026-04-16 13:30 | 32.24502 | -65.34014 | 18114 ft | 329 kts | 254° |
| 2026-04-16 13:30 | 32.23812 | -65.36596 | 18649 ft | 332 kts | 253° |
| 2026-04-16 13:30 | 32.23116 | -65.39202 | 19108 ft | 335 kts | 254° |
| 2026-04-16 13:30 | 32.22413 | -65.41830 | 19557 ft | 338 kts | 254° |
| 2026-04-16 13:31 | 32.21702 | -65.44488 | 20010 ft | 342 kts | 254° |
| 2026-04-16 13:31 | 32.20986 | -65.47165 | 20463 ft | 345 kts | 254° |
| 2026-04-16 13:31 | 32.20262 | -65.49871 | 20905 ft | 348 kts | 254° |
| 2026-04-16 13:31 | 32.19531 | -65.52599 | 21351 ft | 350 kts | 254° |
| 2026-04-16 13:32 | 32.18795 | -65.55345 | 21785 ft | 353 kts | 254° |
| 2026-04-16 13:32 | 32.18050 | -65.58118 | 22214 ft | 356 kts | 254° |
| 2026-04-16 13:32 | 32.17299 | -65.60910 | 22639 ft | 359 kts | 254° |
| 2026-04-16 13:32 | 32.16544 | -65.63724 | 23054 ft | 362 kts | 255° |
| 2026-04-16 13:33 | 32.15780 | -65.66564 | 23472 ft | 365 kts | 255° |
| 2026-04-16 13:33 | 32.15009 | -65.69425 | 23878 ft | 368 kts | 255° |
| 2026-04-16 13:33 | 32.14229 | -65.72310 | 24223 ft | 371 kts | 255° |
| 2026-04-16 13:33 | 32.13443 | -65.75210 | 24581 ft | 373 kts | 255° |
| 2026-04-16 13:34 | 32.12651 | -65.78132 | 24933 ft | 376 kts | 255° |
| 2026-04-16 13:34 | 32.11854 | -65.81071 | 25283 ft | 378 kts | 255° |
| 2026-04-16 13:34 | 32.11052 | -65.84031 | 25631 ft | 381 kts | 255° |
| 2026-04-16 13:34 | 32.10245 | -65.87005 | 25981 ft | 383 kts | 255° |
| 2026-04-16 13:35 | 32.09431 | -65.90007 | 26329 ft | 386 kts | 255° |
| 2026-04-16 13:35 | 32.08614 | -65.93022 | 26676 ft | 388 kts | 255° |
| 2026-04-16 13:35 | 32.07791 | -65.96053 | 27035 ft | 390 kts | 255° |
| 2026-04-16 13:35 | 32.06959 | -65.99102 | 27387 ft | 392 kts | 256° |
| 2026-04-16 13:36 | 32.06122 | -66.02161 | 27733 ft | 394 kts | 256° |
| 2026-04-16 13:36 | 32.05279 | -66.05240 | 28074 ft | 397 kts | 256° |
| 2026-04-16 13:36 | 32.04429 | -66.08339 | 28421 ft | 399 kts | 256° |
| 2026-04-16 13:36 | 32.03573 | -66.11456 | 28767 ft | 402 kts | 256° |
| 2026-04-16 13:37 | 32.02713 | -66.14589 | 29114 ft | 404 kts | 256° |
| 2026-04-16 13:37 | 32.01846 | -66.17747 | 29463 ft | 407 kts | 256° |
| 2026-04-16 13:37 | 32.00978 | -66.20918 | 29788 ft | 409 kts | 256° |
| 2026-04-16 13:37 | 32.00106 | -66.24108 | 30111 ft | 411 kts | 256° |
| 2026-04-16 13:38 | 31.99226 | -66.27320 | 30427 ft | 413 kts | 256° |
| 2026-04-16 13:38 | 31.98341 | -66.30534 | 30737 ft | 415 kts | 256° |
| 2026-04-16 13:38 | 31.97447 | -66.33768 | 31041 ft | 417 kts | 256° |
| 2026-04-16 13:38 | 31.96548 | -66.37016 | 31336 ft | 419 kts | 256° |
| 2026-04-16 13:39 | 31.95644 | -66.40278 | 31635 ft | 421 kts | 256° |
| 2026-04-16 13:39 | 31.94732 | -66.43558 | 31929 ft | 423 kts | 256° |
| 2026-04-16 13:39 | 31.93816 | -66.46854 | 32226 ft | 426 kts | 256° |
| 2026-04-16 13:39 | 31.92898 | -66.50171 | 32499 ft | 428 kts | 256° |
| 2026-04-16 13:40 | 31.91976 | -66.53506 | 32773 ft | 431 kts | 256° |
| 2026-04-16 13:40 | 31.91048 | -66.56859 | 33052 ft | 433 kts | 256° |
| 2026-04-16 13:40 | 31.90110 | -66.60227 | 33336 ft | 434 kts | 256° |
| 2026-04-16 13:40 | 31.89169 | -66.63603 | 33618 ft | 436 kts | 256° |
| 2026-04-16 13:41 | 31.88223 | -66.66995 | 33885 ft | 438 kts | 256° |
| 2026-04-16 13:41 | 31.87272 | -66.70408 | 34148 ft | 440 kts | 256° |
| 2026-04-16 13:41 | 31.86316 | -66.73831 | 34387 ft | 442 kts | 256° |
| 2026-04-16 13:41 | 31.85351 | -66.77265 | 34614 ft | 444 kts | 256° |
| 2026-04-16 13:42 | 31.84380 | -66.80715 | 34842 ft | 446 kts | 256° |
| 2026-04-16 13:42 | 31.83410 | -66.84175 | 35073 ft | 447 kts | 256° |
| 2026-04-16 13:42 | 31.82437 | -66.87641 | 35291 ft | 448 kts | 256° |
| 2026-04-16 13:42 | 31.81459 | -66.91123 | 35510 ft | 449 kts | 256° |
| 2026-04-16 13:43 | 31.80478 | -66.94601 | 35762 ft | 450 kts | 256° |
| 2026-04-16 13:43 | 31.79493 | -66.98086 | 35983 ft | 451 kts | 256° |
| 2026-04-16 13:43 | 31.78503 | -67.01580 | 36187 ft | 452 kts | 256° |
| 2026-04-16 13:44 | 31.76520 | -67.08597 | 36279 ft | 454 kts | 256° |
| 2026-04-16 13:44 | 31.74532 | -67.15613 | 36277 ft | 454 kts | 256° |
| 2026-04-16 13:45 | 31.72675 | -67.22144 | 36258 ft | 453 kts | 255° |
| 2026-04-16 13:45 | 31.70676 | -67.29142 | 36271 ft | 452 kts | 255° |
| 2026-04-16 13:46 | 31.68681 | -67.36132 | 36278 ft | 452 kts | 256° |
| 2026-04-16 13:46 | 31.66692 | -67.43118 | 36277 ft | 452 kts | 255° |
| 2026-04-16 13:47 | 31.64690 | -67.50101 | 36278 ft | 452 kts | 255° |
| 2026-04-16 13:47 | 31.62682 | -67.57081 | 36257 ft | 452 kts | 255° |
| 2026-04-16 13:48 | 31.60674 | -67.64053 | 36275 ft | 452 kts | 255° |
| 2026-04-16 13:48 | 31.58662 | -67.71020 | 36278 ft | 452 kts | 255° |
| 2026-04-16 13:49 | 31.56645 | -67.77976 | 36278 ft | 451 kts | 255° |
| 2026-04-16 13:49 | 31.54621 | -67.84927 | 36274 ft | 451 kts | 255° |
| 2026-04-16 13:50 | 31.52601 | -67.91872 | 36272 ft | 451 kts | 255° |
| 2026-04-16 13:50 | 31.50582 | -67.98814 | 36273 ft | 451 kts | 255° |
| 2026-04-16 13:51 | 31.48501 | -68.05729 | 36264 ft | 453 kts | 249° |
| 2026-04-16 13:51 | 31.45440 | -68.12201 | 36262 ft | 456 kts | 243° |
| 2026-04-16 13:52 | 31.42262 | -68.18609 | 36257 ft | 456 kts | 243° |
| 2026-04-16 13:52 | 31.40668 | -68.21812 | 36853 ft | 457 kts | 240° |
| 2026-04-16 13:52 | 31.39062 | -68.25033 | 36647 ft | 461 kts | 239° |
| 2026-04-16 13:52 | 31.37445 | -68.28285 | 36445 ft | 465 kts | 240° |
| 2026-04-16 13:53 | 31.35817 | -68.31567 | 36240 ft | 469 kts | 239° |
| 2026-04-16 13:53 | 31.34173 | -68.34874 | 36037 ft | 473 kts | 239° |
| 2026-04-16 13:53 | 31.32516 | -68.38195 | 36004 ft | 473 kts | 239° |
| 2026-04-16 13:54 | 31.29210 | -68.44811 | 36009 ft | 472 kts | 239° |
| 2026-04-16 13:54 | 31.25912 | -68.51409 | 36009 ft | 470 kts | 239° |
| 2026-04-16 13:55 | 31.22622 | -68.57983 | 36009 ft | 469 kts | 239° |
| 2026-04-16 13:55 | 31.19337 | -68.64545 | 36009 ft | 468 kts | 239° |
| 2026-04-16 13:56 | 31.16053 | -68.71085 | 36009 ft | 467 kts | 239° |
| 2026-04-16 13:56 | 31.12766 | -68.77606 | 36009 ft | 467 kts | 239° |
| 2026-04-16 13:57 | 31.09482 | -68.84116 | 36009 ft | 466 kts | 239° |
| 2026-04-16 13:57 | 31.06208 | -68.90613 | 36009 ft | 465 kts | 239° |
| 2026-04-16 13:58 | 31.01290 | -69.00340 | 36009 ft | 465 kts | 239° |
| 2026-04-16 13:58 | 30.98003 | -69.06807 | 36009 ft | 464 kts | 239° |
| 2026-04-16 13:59 | 30.94719 | -69.13265 | 36009 ft | 464 kts | 239° |
| 2026-04-16 13:59 | 30.90549 | -69.18860 | 36009 ft | 462 kts | 212° |
| 2026-04-16 14:00 | 30.87653 | -69.20424 | 36009 ft | 461 kts | 195° |
| 2026-04-16 14:00 | 30.84493 | -69.20953 | 36009 ft | 461 kts | 178° |
| 2026-04-16 14:00 | 30.78195 | -69.19718 | 36008 ft | 461 kts | 168° |
| 2026-04-16 14:01 | 30.71925 | -69.18205 | 36009 ft | 461 kts | 168° |
| 2026-04-16 14:01 | 30.65652 | -69.16705 | 36009 ft | 461 kts | 168° |
| 2026-04-16 14:02 | 30.59377 | -69.15226 | 36009 ft | 461 kts | 169° |
| 2026-04-16 14:02 | 30.53098 | -69.13745 | 36009 ft | 461 kts | 168° |
| 2026-04-16 14:03 | 30.46821 | -69.12258 | 36009 ft | 461 kts | 168° |
| 2026-04-16 14:03 | 30.40543 | -69.10772 | 36009 ft | 462 kts | 169° |
| 2026-04-16 14:04 | 30.34262 | -69.09293 | 36009 ft | 462 kts | 168° |
| 2026-04-16 14:04 | 30.27978 | -69.07810 | 36009 ft | 462 kts | 169° |
| 2026-04-16 14:05 | 30.21695 | -69.06334 | 36009 ft | 462 kts | 169° |
| 2026-04-16 14:05 | 30.15408 | -69.04862 | 36009 ft | 462 kts | 169° |
| 2026-04-16 14:06 | 30.09122 | -69.03398 | 36009 ft | 462 kts | 169° |
| 2026-04-16 14:06 | 30.02835 | -69.01926 | 36009 ft | 462 kts | 169° |
| 2026-04-16 14:07 | 29.96547 | -69.00449 | 36009 ft | 462 kts | 169° |
| 2026-04-16 14:07 | 29.90255 | -68.98985 | 36009 ft | 462 kts | 169° |
| 2026-04-16 14:08 | 29.83966 | -68.97519 | 36009 ft | 462 kts | 169° |
| 2026-04-16 14:08 | 29.77673 | -68.96053 | 36009 ft | 462 kts | 169° |
| 2026-04-16 14:09 | 29.71380 | -68.94589 | 36009 ft | 462 kts | 169° |
| 2026-04-16 14:09 | 29.65087 | -68.93124 | 36009 ft | 462 kts | 169° |
| 2026-04-16 14:10 | 29.58794 | -68.91661 | 36009 ft | 462 kts | 169° |
| 2026-04-16 14:10 | 29.52499 | -68.90211 | 36009 ft | 462 kts | 169° |
| 2026-04-16 14:11 | 29.46201 | -68.88755 | 36009 ft | 462 kts | 169° |
| 2026-04-16 14:11 | 29.39906 | -68.87304 | 36009 ft | 463 kts | 169° |
| 2026-04-16 14:12 | 29.33609 | -68.85851 | 36009 ft | 463 kts | 169° |
| 2026-04-16 14:12 | 29.27310 | -68.84396 | 36009 ft | 463 kts | 169° |
| 2026-04-16 14:13 | 29.21013 | -68.82940 | 36009 ft | 463 kts | 169° |
| 2026-04-16 14:13 | 29.14712 | -68.81491 | 36009 ft | 463 kts | 169° |
| 2026-04-16 14:14 | 29.08411 | -68.80054 | 36009 ft | 463 kts | 169° |
| 2026-04-16 14:14 | 29.02109 | -68.78613 | 36009 ft | 463 kts | 169° |
| 2026-04-16 14:15 | 28.95809 | -68.77163 | 36009 ft | 463 kts | 169° |
| 2026-04-16 14:15 | 28.89508 | -68.75712 | 36009 ft | 463 kts | 169° |
| 2026-04-16 14:16 | 28.83203 | -68.74272 | 36009 ft | 463 kts | 169° |
| 2026-04-16 14:16 | 28.76899 | -68.72843 | 36009 ft | 463 kts | 169° |
| 2026-04-16 14:17 | 28.70593 | -68.71408 | 36009 ft | 463 kts | 169° |
| 2026-04-16 14:17 | 28.64288 | -68.69972 | 36009 ft | 463 kts | 169° |
| 2026-04-16 14:18 | 28.57983 | -68.68540 | 36009 ft | 463 kts | 169° |
| 2026-04-16 14:18 | 28.51677 | -68.67107 | 36009 ft | 463 kts | 169° |
| 2026-04-16 14:19 | 28.45370 | -68.65671 | 36009 ft | 463 kts | 169° |
| 2026-04-16 14:19 | 28.39061 | -68.64243 | 36009 ft | 463 kts | 169° |
| 2026-04-16 14:20 | 28.32752 | -68.62823 | 36009 ft | 463 kts | 169° |
| 2026-04-16 14:20 | 28.26443 | -68.61402 | 36009 ft | 463 kts | 169° |
| 2026-04-16 14:21 | 28.20131 | -68.59971 | 36009 ft | 463 kts | 169° |
| 2026-04-16 14:21 | 28.13822 | -68.58549 | 36009 ft | 463 kts | 169° |
| 2026-04-16 14:22 | 28.07511 | -68.57131 | 36009 ft | 463 kts | 169° |
| 2026-04-16 14:22 | 28.01198 | -68.55708 | 36009 ft | 463 kts | 169° |
| 2026-04-16 14:23 | 27.94885 | -68.54291 | 36009 ft | 463 kts | 169° |
| 2026-04-16 14:23 | 27.88575 | -68.52878 | 36009 ft | 463 kts | 169° |
| 2026-04-16 14:24 | 27.82257 | -68.51461 | 36009 ft | 464 kts | 169° |
| 2026-04-16 14:24 | 27.75947 | -68.50041 | 36009 ft | 464 kts | 169° |
| 2026-04-16 14:25 | 27.69631 | -68.48637 | 36009 ft | 464 kts | 169° |
| 2026-04-16 14:25 | 27.63314 | -68.47240 | 36009 ft | 464 kts | 169° |
| 2026-04-16 14:26 | 27.56995 | -68.45827 | 36009 ft | 464 kts | 169° |
| 2026-04-16 14:26 | 27.50679 | -68.44413 | 36009 ft | 464 kts | 169° |
| 2026-04-16 14:27 | 27.44364 | -68.42998 | 36009 ft | 464 kts | 169° |
| 2026-04-16 14:27 | 27.38045 | -68.41590 | 36009 ft | 464 kts | 169° |
| 2026-04-16 14:28 | 27.31725 | -68.40199 | 36009 ft | 464 kts | 169° |
| 2026-04-16 14:28 | 27.25406 | -68.38801 | 36009 ft | 464 kts | 169° |
| 2026-04-16 14:29 | 27.19087 | -68.37395 | 36009 ft | 464 kts | 169° |
| 2026-04-16 14:29 | 27.12765 | -68.35995 | 36009 ft | 464 kts | 169° |
| 2026-04-16 14:30 | 27.06444 | -68.34605 | 36009 ft | 464 kts | 169° |
| 2026-04-16 14:30 | 27.00124 | -68.33216 | 36009 ft | 464 kts | 169° |
| 2026-04-16 14:31 | 26.93803 | -68.31825 | 36009 ft | 464 kts | 169° |
| 2026-04-16 14:31 | 26.87477 | -68.30429 | 36009 ft | 464 kts | 169° |
| 2026-04-16 14:32 | 26.81153 | -68.29034 | 36009 ft | 464 kts | 169° |
| 2026-04-16 14:32 | 26.74830 | -68.27645 | 36009 ft | 464 kts | 169° |
| 2026-04-16 14:33 | 26.68505 | -68.26256 | 36009 ft | 464 kts | 169° |
| 2026-04-16 14:33 | 26.62180 | -68.24869 | 36009 ft | 464 kts | 169° |
| 2026-04-16 14:34 | 26.55853 | -68.23495 | 36009 ft | 464 kts | 169° |
| 2026-04-16 14:34 | 26.49526 | -68.22108 | 36009 ft | 464 kts | 169° |
| 2026-04-16 14:35 | 26.43200 | -68.20728 | 36009 ft | 464 kts | 169° |
| 2026-04-16 14:35 | 26.36872 | -68.19344 | 36009 ft | 464 kts | 169° |
| 2026-04-16 14:36 | 26.30542 | -68.17960 | 36009 ft | 464 kts | 169° |
| 2026-04-16 14:36 | 26.24215 | -68.16590 | 36009 ft | 464 kts | 169° |
| 2026-04-16 14:37 | 26.17883 | -68.15218 | 36009 ft | 464 kts | 169° |
| 2026-04-16 14:37 | 26.11555 | -68.13836 | 36009 ft | 464 kts | 169° |
| 2026-04-16 14:38 | 26.05223 | -68.12464 | 36009 ft | 464 kts | 169° |
| 2026-04-16 14:38 | 25.98891 | -68.11090 | 36009 ft | 465 kts | 169° |
| 2026-04-16 14:39 | 25.92559 | -68.09720 | 36009 ft | 465 kts | 169° |
| 2026-04-16 14:39 | 25.86227 | -68.08358 | 36009 ft | 465 kts | 169° |
| 2026-04-16 14:40 | 25.79896 | -68.06986 | 36009 ft | 465 kts | 169° |
| 2026-04-16 14:40 | 25.73561 | -68.05612 | 36009 ft | 465 kts | 169° |
| 2026-04-16 14:41 | 25.67226 | -68.04252 | 36009 ft | 465 kts | 169° |
| 2026-04-16 14:41 | 25.60890 | -68.02895 | 36009 ft | 465 kts | 169° |
| 2026-04-16 14:42 | 25.54557 | -68.01532 | 36009 ft | 465 kts | 169° |
| 2026-04-16 14:42 | 25.48222 | -68.00161 | 36009 ft | 465 kts | 169° |
| 2026-04-16 14:43 | 25.41887 | -67.98798 | 36009 ft | 465 kts | 169° |
| 2026-04-16 14:43 | 25.35551 | -67.97440 | 36009 ft | 465 kts | 169° |
| 2026-04-16 14:44 | 25.29212 | -67.96080 | 36009 ft | 465 kts | 169° |
| 2026-04-16 14:44 | 25.22871 | -67.94733 | 36009 ft | 465 kts | 169° |
| 2026-04-16 14:45 | 25.16533 | -67.93391 | 36009 ft | 465 kts | 169° |
| 2026-04-16 14:45 | 25.10195 | -67.92028 | 36009 ft | 465 kts | 169° |
| 2026-04-16 14:46 | 25.03855 | -67.90667 | 36009 ft | 465 kts | 169° |
| 2026-04-16 14:46 | 24.97515 | -67.89321 | 36009 ft | 465 kts | 169° |
| 2026-04-16 14:47 | 24.91172 | -67.87974 | 36009 ft | 465 kts | 169° |
| 2026-04-16 14:47 | 24.84830 | -67.86625 | 36009 ft | 465 kts | 169° |
| 2026-04-16 14:48 | 24.78488 | -67.85283 | 36009 ft | 465 kts | 169° |
| 2026-04-16 14:48 | 24.72144 | -67.83938 | 36009 ft | 465 kts | 169° |
| 2026-04-16 14:49 | 24.65804 | -67.82596 | 36009 ft | 465 kts | 169° |
| 2026-04-16 14:49 | 24.59459 | -67.81252 | 36009 ft | 465 kts | 169° |
| 2026-04-16 14:50 | 24.53112 | -67.79912 | 36009 ft | 465 kts | 169° |
| 2026-04-16 14:50 | 24.46768 | -67.78574 | 36009 ft | 465 kts | 169° |
| 2026-04-16 14:51 | 24.40424 | -67.77229 | 36009 ft | 465 kts | 169° |
| 2026-04-16 14:51 | 24.34079 | -67.75907 | 36007 ft | 465 kts | 172° |
| 2026-04-16 14:53 | 24.17092 | -67.89459 | 36009 ft | 462 kts | 234° |
| 2026-04-16 14:53 | 24.15208 | -67.92300 | 36009 ft | 462 kts | 234° |
| 2026-04-16 14:54 | 24.11430 | -67.97977 | 36009 ft | 462 kts | 234° |
| 2026-04-16 14:54 | 24.07646 | -68.03654 | 36009 ft | 463 kts | 234° |
| 2026-04-16 14:55 | 24.03863 | -68.09331 | 36009 ft | 463 kts | 234° |
| 2026-04-16 14:55 | 24.00076 | -68.15007 | 36009 ft | 463 kts | 234° |
| 2026-04-16 14:56 | 23.96285 | -68.20686 | 36009 ft | 463 kts | 234° |
| 2026-04-16 14:56 | 23.92484 | -68.26357 | 36009 ft | 463 kts | 233° |
| 2026-04-16 14:57 | 23.88567 | -68.31932 | 36009 ft | 464 kts | 232° |
| 2026-04-16 14:57 | 23.84584 | -68.37458 | 36009 ft | 464 kts | 232° |
| 2026-04-16 14:58 | 23.78646 | -68.45769 | 36009 ft | 464 kts | 232° |
| 2026-04-16 14:59 | 23.74709 | -68.51337 | 36009 ft | 464 kts | 232° |
| 2026-04-16 14:59 | 23.70758 | -68.56886 | 36009 ft | 464 kts | 232° |
| 2026-04-16 15:00 | 23.66798 | -68.62431 | 36009 ft | 464 kts | 232° |
| 2026-04-16 15:00 | 23.62844 | -68.67981 | 36009 ft | 464 kts | 232° |
| 2026-04-16 15:01 | 23.58889 | -68.73531 | 36009 ft | 464 kts | 232° |
| 2026-04-16 15:01 | 23.54928 | -68.79071 | 36009 ft | 464 kts | 232° |
| 2026-04-16 15:02 | 23.50962 | -68.84612 | 36009 ft | 465 kts | 232° |
| 2026-04-16 15:02 | 23.46998 | -68.90153 | 36009 ft | 465 kts | 232° |
| 2026-04-16 15:03 | 23.43030 | -68.95688 | 36009 ft | 465 kts | 232° |
| 2026-04-16 15:03 | 23.39052 | -69.01215 | 36009 ft | 465 kts | 232° |
| 2026-04-16 15:04 | 23.35078 | -69.06744 | 36009 ft | 465 kts | 232° |
| 2026-04-16 15:04 | 23.31100 | -69.12272 | 36009 ft | 465 kts | 232° |
| 2026-04-16 15:05 | 23.27121 | -69.17793 | 36009 ft | 465 kts | 232° |
| 2026-04-16 15:05 | 23.23137 | -69.23314 | 36009 ft | 465 kts | 232° |
| 2026-04-16 15:06 | 23.19152 | -69.28832 | 36009 ft | 465 kts | 232° |
| 2026-04-16 15:06 | 23.15164 | -69.34345 | 36009 ft | 465 kts | 232° |
| 2026-04-16 15:07 | 23.11175 | -69.39860 | 36009 ft | 465 kts | 232° |
| 2026-04-16 15:07 | 23.07188 | -69.45373 | 36009 ft | 465 kts | 232° |
| 2026-04-16 15:08 | 23.03198 | -69.50883 | 36009 ft | 465 kts | 232° |
| 2026-04-16 15:08 | 22.99201 | -69.56387 | 36009 ft | 465 kts | 232° |
| 2026-04-16 15:09 | 22.95207 | -69.61888 | 36009 ft | 465 kts | 232° |
| 2026-04-16 15:09 | 22.91207 | -69.67392 | 36009 ft | 465 kts | 232° |
| 2026-04-16 15:10 | 22.87208 | -69.72884 | 36009 ft | 465 kts | 231° |
| 2026-04-16 15:10 | 22.83200 | -69.78377 | 36009 ft | 465 kts | 231° |
| 2026-04-16 15:11 | 22.79191 | -69.83868 | 36009 ft | 465 kts | 231° |
| 2026-04-16 15:11 | 22.75175 | -69.89348 | 36008 ft | 465 kts | 230° |
| 2026-04-16 15:12 | 22.70480 | -69.94141 | 36008 ft | 465 kts | 221° |
| 2026-04-16 15:12 | 22.65637 | -69.98762 | 36009 ft | 465 kts | 221° |
| 2026-04-16 15:13 | 22.60790 | -70.03380 | 36009 ft | 465 kts | 221° |
| 2026-04-16 15:13 | 22.55945 | -70.08000 | 36009 ft | 465 kts | 221° |
| 2026-04-16 15:14 | 22.51097 | -70.12614 | 36009 ft | 465 kts | 221° |
| 2026-04-16 15:14 | 22.46245 | -70.17228 | 36009 ft | 465 kts | 221° |
| 2026-04-16 15:15 | 22.41392 | -70.21837 | 36009 ft | 465 kts | 221° |
| 2026-04-16 15:15 | 22.36537 | -70.26440 | 36009 ft | 465 kts | 221° |
| 2026-04-16 15:16 | 22.31699 | -70.31068 | 36009 ft | 465 kts | 222° |
| 2026-04-16 15:16 | 22.26961 | -70.35812 | 36009 ft | 466 kts | 223° |
| 2026-04-16 15:17 | 22.22248 | -70.40590 | 36009 ft | 466 kts | 223° |
| 2026-04-16 15:17 | 22.17512 | -70.45338 | 36009 ft | 466 kts | 223° |
| 2026-04-16 15:18 | 22.12759 | -70.50060 | 36009 ft | 466 kts | 223° |
| 2026-04-16 15:18 | 22.08003 | -70.54785 | 36009 ft | 466 kts | 223° |
| 2026-04-16 15:19 | 22.03255 | -70.59512 | 36009 ft | 466 kts | 223° |
| 2026-04-16 15:19 | 21.98505 | -70.64239 | 36009 ft | 466 kts | 223° |
| 2026-04-16 15:20 | 21.93751 | -70.68963 | 36009 ft | 466 kts | 223° |
| 2026-04-16 15:20 | 21.88992 | -70.73676 | 36009 ft | 466 kts | 223° |
| 2026-04-16 15:21 | 21.84227 | -70.78383 | 36009 ft | 466 kts | 223° |
| 2026-04-16 15:21 | 21.79394 | -70.83010 | 36009 ft | 466 kts | 220° |
| 2026-04-16 15:22 | 21.74350 | -70.87365 | 36009 ft | 466 kts | 218° |
| 2026-04-16 15:22 | 21.69256 | -70.91648 | 36009 ft | 466 kts | 218° |
| 2026-04-16 15:23 | 21.64193 | -70.95977 | 36009 ft | 466 kts | 219° |
| 2026-04-16 15:23 | 21.59163 | -71.00350 | 36009 ft | 466 kts | 219° |
| 2026-04-16 15:24 | 21.54137 | -71.04724 | 36009 ft | 466 kts | 219° |
| 2026-04-16 15:24 | 21.49102 | -71.09088 | 36009 ft | 466 kts | 219° |
| 2026-04-16 15:25 | 21.44042 | -71.13421 | 36007 ft | 466 kts | 215° |
| 2026-04-16 15:25 | 21.38577 | -71.17134 | 36009 ft | 466 kts | 212° |
| 2026-04-16 15:26 | 21.33095 | -71.20810 | 36009 ft | 466 kts | 212° |
| 2026-04-16 15:26 | 21.27602 | -71.24496 | 36009 ft | 466 kts | 212° |
| 2026-04-16 15:27 | 21.22114 | -71.28174 | 36009 ft | 466 kts | 212° |
| 2026-04-16 15:27 | 21.16625 | -71.31850 | 36009 ft | 466 kts | 212° |
| 2026-04-16 15:28 | 21.11141 | -71.35526 | 36009 ft | 466 kts | 212° |
| 2026-04-16 15:28 | 21.05646 | -71.39199 | 36009 ft | 466 kts | 211° |
| 2026-04-16 15:29 | 21.00050 | -71.42683 | 36009 ft | 466 kts | 209° |
| 2026-04-16 15:29 | 20.94367 | -71.46006 | 36009 ft | 466 kts | 208° |
| 2026-04-16 15:30 | 20.88690 | -71.49339 | 36009 ft | 466 kts | 209° |
| 2026-04-16 15:30 | 20.83046 | -71.52724 | 36009 ft | 466 kts | 210° |
| 2026-04-16 15:31 | 20.77402 | -71.56132 | 36009 ft | 466 kts | 209° |
| 2026-04-16 15:31 | 20.71759 | -71.59518 | 36009 ft | 467 kts | 209° |
| 2026-04-16 15:32 | 20.66102 | -71.62900 | 36009 ft | 467 kts | 209° |
| 2026-04-16 15:32 | 20.60441 | -71.66271 | 36009 ft | 467 kts | 209° |
| 2026-04-16 15:33 | 20.54786 | -71.69642 | 36009 ft | 467 kts | 209° |
| 2026-04-16 15:33 | 20.49134 | -71.73024 | 36009 ft | 467 kts | 209° |
| 2026-04-16 15:34 | 20.43483 | -71.76400 | 36009 ft | 467 kts | 208° |
| 2026-04-16 15:34 | 20.40504 | -71.77750 | 36008 ft | 466 kts | 197° |
| 2026-04-16 15:34 | 20.37368 | -71.78597 | 36010 ft | 466 kts | 193° |
| 2026-04-16 15:35 | 20.31123 | -71.80199 | 36009 ft | 467 kts | 194° |
| 2026-04-16 15:35 | 20.24823 | -71.81830 | 36009 ft | 467 kts | 194° |
| 2026-04-16 15:36 | 20.18530 | -71.83460 | 36009 ft | 467 kts | 194° |
| 2026-04-16 15:36 | 20.12231 | -71.85088 | 36009 ft | 467 kts | 194° |
| 2026-04-16 15:37 | 20.05928 | -71.86714 | 36009 ft | 467 kts | 194° |
| 2026-04-16 15:37 | 19.99626 | -71.88336 | 36009 ft | 467 kts | 194° |
| 2026-04-16 15:38 | 19.93328 | -71.89965 | 36009 ft | 467 kts | 194° |
| 2026-04-16 15:38 | 19.87027 | -71.91596 | 36009 ft | 467 kts | 194° |
| 2026-04-16 15:39 | 19.80725 | -71.93220 | 36009 ft | 467 kts | 194° |
| 2026-04-16 15:39 | 19.74422 | -71.94838 | 36009 ft | 467 kts | 194° |
| 2026-04-16 15:40 | 19.68112 | -71.96457 | 36009 ft | 467 kts | 194° |
| 2026-04-16 15:40 | 19.62004 | -71.98693 | 36012 ft | 467 kts | 207° |
| 2026-04-16 15:41 | 19.56216 | -72.01779 | 36009 ft | 467 kts | 207° |
| 2026-04-16 15:41 | 19.50416 | -72.04859 | 35861 ft | 470 kts | 206° |
| 2026-04-16 15:41 | 19.47451 | -72.06430 | 34721 ft | 486 kts | 206° |
| 2026-04-16 15:42 | 19.44421 | -72.08037 | 34177 ft | 485 kts | 207° |
| 2026-04-16 15:42 | 19.41448 | -72.09614 | 34050 ft | 473 kts | 207° |
| 2026-04-16 15:42 | 19.38538 | -72.11158 | 33786 ft | 465 kts | 207° |
| 2026-04-16 15:42 | 19.35667 | -72.12682 | 33405 ft | 460 kts | 206° |
| 2026-04-16 15:43 | 19.32826 | -72.14185 | 32988 ft | 455 kts | 206° |
| 2026-04-16 15:43 | 19.30008 | -72.15670 | 32563 ft | 451 kts | 206° |
| 2026-04-16 15:43 | 19.27216 | -72.17142 | 32133 ft | 447 kts | 206° |
| 2026-04-16 15:43 | 19.24446 | -72.18604 | 31703 ft | 444 kts | 206° |
| 2026-04-16 15:44 | 19.21725 | -72.20097 | 31275 ft | 440 kts | 211° |
| 2026-04-16 15:44 | 19.19283 | -72.22004 | 30866 ft | 436 kts | 223° |
| 2026-04-16 15:44 | 19.17250 | -72.24349 | 30455 ft | 432 kts | 233° |
| 2026-04-16 15:44 | 19.15686 | -72.27034 | 30045 ft | 429 kts | 244° |
| 2026-04-16 15:45 | 19.14587 | -72.29975 | 29001 ft | 438 kts | 254° |
| 2026-04-16 15:45 | 19.13928 | -72.33161 | 27239 ft | 453 kts | 259° |
| 2026-04-16 15:45 | 19.13329 | -72.36485 | 25250 ft | 470 kts | 259° |
| 2026-04-16 15:45 | 19.12726 | -72.39892 | 23496 ft | 474 kts | 259° |
| 2026-04-16 15:46 | 19.12118 | -72.43324 | 21660 ft | 478 kts | 259° |
| 2026-04-16 15:46 | 19.11500 | -72.46760 | 20117 ft | 474 kts | 259° |
| 2026-04-16 15:46 | 19.10882 | -72.50138 | 18748 ft | 464 kts | 259° |
| 2026-04-16 15:46 | 19.10165 | -72.53422 | 17488 ft | 455 kts | 250° |
| 2026-04-16 15:47 | 19.08697 | -72.56317 | 16390 ft | 444 kts | 232° |
| 2026-04-16 15:47 | 19.06506 | -72.58541 | 15231 ft | 434 kts | 214° |
| 2026-04-16 15:47 | 19.03833 | -72.59902 | 14059 ft | 426 kts | 196° |
| 2026-04-16 15:47 | 19.00939 | -72.60346 | 12897 ft | 417 kts | 181° |
| 2026-04-16 15:48 | 18.98063 | -72.60402 | 11660 ft | 411 kts | 181° |
| 2026-04-16 15:48 | 18.95258 | -72.60443 | 10996 ft | 392 kts | 181° |
| 2026-04-16 15:48 | 18.92646 | -72.60477 | 10790 ft | 362 kts | 181° |
| 2026-04-16 15:48 | 18.90228 | -72.60515 | 10662 ft | 335 kts | 181° |
| 2026-04-16 15:49 | 18.87978 | -72.60556 | 10528 ft | 313 kts | 181° |
| 2026-04-16 15:49 | 18.85848 | -72.60597 | 10167 ft | 302 kts | 181° |
| 2026-04-16 15:49 | 18.83774 | -72.60638 | 9914 ft | 297 kts | 181° |
| 2026-04-16 15:49 | 18.81715 | -72.60679 | 9785 ft | 296 kts | 181° |
| 2026-04-16 15:50 | 18.79660 | -72.60725 | 9660 ft | 295 kts | 181° |
| 2026-04-16 15:50 | 18.77612 | -72.60774 | 9511 ft | 295 kts | 181° |
| 2026-04-16 15:50 | 18.75532 | -72.60823 | 8932 ft | 302 kts | 181° |
| 2026-04-16 15:50 | 18.73464 | -72.60869 | 8689 ft | 296 kts | 181° |
| 2026-04-16 15:51 | 18.71418 | -72.60914 | 8345 ft | 294 kts | 181° |
| 2026-04-16 15:51 | 18.69420 | -72.60956 | 7773 ft | 291 kts | 180° |
| 2026-04-16 15:51 | 18.67405 | -72.60997 | 7352 ft | 292 kts | 180° |
| 2026-04-16 15:51 | 18.65346 | -72.61039 | 6604 ft | 301 kts | 180° |
| 2026-04-16 15:52 | 18.63254 | -72.60915 | 6098 ft | 299 kts | 168° |
| 2026-04-16 15:52 | 18.61345 | -72.60249 | 6000 ft | 282 kts | 153° |
| 2026-04-16 15:52 | 18.59747 | -72.59177 | 5919 ft | 266 kts | 140° |
| 2026-04-16 15:52 | 18.58483 | -72.57825 | 5633 ft | 260 kts | 128° |
| 2026-04-16 15:53 | 18.57527 | -72.56191 | 5130 ft | 264 kts | 114° |
| 2026-04-16 15:53 | 18.56955 | -72.54344 | 4644 ft | 269 kts | 101° |
| 2026-04-16 15:53 | 18.56820 | -72.52362 | 4144 ft | 275 kts | 87° |
| 2026-04-16 15:53 | 18.56926 | -72.50337 | 3714 ft | 279 kts | 86° |
| 2026-04-16 15:54 | 18.57033 | -72.48319 | 3516 ft | 273 kts | 86° |
| 2026-04-16 15:54 | 18.57151 | -72.46344 | 3288 ft | 269 kts | 86° |
| 2026-04-16 15:54 | 18.57287 | -72.44410 | 2959 ft | 259 kts | 85° |
| 2026-04-16 15:54 | 18.57438 | -72.42557 | 2563 ft | 249 kts | 85° |
| 2026-04-16 15:55 | 18.57597 | -72.40777 | 2123 ft | 241 kts | 90° |
| 2026-04-16 15:55 | 18.57695 | -72.39031 | 1574 ft | 238 kts | 94° |
| 2026-04-16 15:55 | 18.57685 | -72.37319 | 1208 ft | 229 kts | 97° |
| 2026-04-16 15:55 | 18.57672 | -72.35701 | 954 ft | 215 kts | 96° |
| 2026-04-16 15:56 | 18.57748 | -72.34200 | 764 ft | 196 kts | 91° |
| 2026-04-16 15:56 | 18.57878 | -72.32818 | 509 ft | 185 kts | 88° |
| 2026-04-16 15:56 | 18.57896 | -72.31491 | 201 ft | 177 kts | 88° |
| 2026-04-16 15:56 | 18.57959 | -72.30267 | 95 ft | 155 kts | 88° |
| 2026-04-16 15:57 | 18.58006 | -72.29252 | 97 ft | 117 kts | 87° |
| 2026-04-16 15:57 | 18.58041 | -72.28579 | 109 ft | 67 kts | 86° |
| 2026-04-16 15:57 | 18.58060 | -72.28220 | 114 ft | 45 kts | 87° |
| 2026-04-16 15:57 | 18.58076 | -72.27924 | 119 ft | 23 kts | 86° |
| 2026-04-16 15:58 | 18.57991 | -72.27822 | 115 ft | 22 kts | 175° |
| 2026-04-16 15:58 | 18.57836 | -72.27803 | 115 ft | 23 kts | 161° |
| 2026-04-16 15:58 | 18.57798 | -72.27745 | 117 ft | 0 kts | 89° |